Time;durP1;ratioP1;P1;durP2;ratioP2;P2;SDS_P1;SDS_P2;PMS_P1;PMS_P2;Temp;Humidity;BMP_temperature;BMP_pressure;BME280_temperature;BME280_humidity;BME280_pressure;Samples;Min_cycle;Max_cycle;Signal;HPM_P1;HPM_P2
2023/05/23 00:01:57;;;;;;;10.05;7.82;;;19.60;60.60;;;;;;5029851;28;20042;-46
2023/05/23 00:04:26;;;;;;;9.77;8.02;;;19.60;60.60;;;;;;5009260;28;20047;-43
2023/05/23 00:06:55;;;;;;;9.80;8.57;;;19.60;60.80;;;;;;5026190;28;20068;-48
2023/05/23 00:09:25;;;;;;;11.57;8.82;;;19.50;60.80;;;;;;5030160;28;20045;-43
2023/05/23 00:11:51;;;;;;;13.02;9.50;;;19.60;61.00;;;;;;5027791;28;20445;-46
2023/05/23 00:14:22;;;;;;;11.07;8.52;;;19.50;61.20;;;;;;5010782;28;20533;-43
2023/05/23 00:16:53;;;;;;;13.93;10.07;;;19.50;61.50;;;;;;5030995;28;20417;-43
2023/05/23 00:19:20;;;;;;;12.10;10.00;;;19.50;61.70;;;;;;5030067;28;20691;-44
2023/05/23 00:21:49;;;;;;;13.02;10.88;;;19.50;61.90;;;;;;5014687;28;20389;-42
2023/05/23 00:24:19;;;;;;;12.90;11.15;;;19.50;62.00;;;;;;5011469;28;20042;-43
2023/05/23 00:26:46;;;;;;;14.45;11.20;;;19.60;62.10;;;;;;5015686;28;20045;-46
2023/05/23 00:29:15;;;;;;;14.85;12.02;;;19.60;62.20;;;;;;5012254;28;20048;-47
2023/05/23 00:31:45;;;;;;;13.50;11.27;;;19.60;62.50;;;;;;5030040;28;20065;-44
2023/05/23 00:34:18;;;;;;;11.18;9.43;;;19.60;62.30;;;;;;5004230;28;20069;-46
2023/05/23 00:36:53;;;;;;;12.23;10.20;;;19.60;62.50;;;;;;4990037;28;20108;-43
2023/05/23 00:39:19;;;;;;;11.82;9.95;;;19.60;62.20;;;;;;5029518;28;20580;-41
2023/05/23 00:41:48;;;;;;;9.23;8.32;;;19.60;62.20;;;;;;5002943;28;20037;-43
2023/05/23 00:44:20;;;;;;;8.82;7.45;;;19.60;62.00;;;;;;4994875;28;20396;-44
2023/05/23 00:46:56;;;;;;;5.82;5.32;;;19.50;61.80;;;;;;5022979;28;20049;-43
2023/05/23 00:49:26;;;;;;;6.32;5.55;;;19.50;61.10;;;;;;5029112;28;20052;-42
2023/05/23 00:51:53;;;;;;;5.40;4.85;;;19.40;60.80;;;;;;5028078;28;20045;-46
2023/05/23 00:54:27;;;;;;;5.85;5.00;;;19.40;60.70;;;;;;4987395;28;20125;-44
2023/05/23 00:56:56;;;;;;;4.75;4.30;;;19.40;60.60;;;;;;5017548;28;20041;-44
2023/05/23 00:59:25;;;;;;;5.53;4.65;;;19.30;60.50;;;;;;5011645;28;20051;-46
2023/05/23 01:01:57;;;;;;;4.97;4.47;;;19.30;60.70;;;;;;5027693;28;20435;-43
2023/05/23 01:04:27;;;;;;;5.50;4.63;;;19.30;60.80;;;;;;5009977;28;20065;-47
2023/05/23 01:06:57;;;;;;;4.97;4.47;;;19.20;60.90;;;;;;5011671;28;20530;-44
2023/05/23 01:09:29;;;;;;;6.35;5.03;;;19.20;61.10;;;;;;5011185;28;20080;-43
2023/05/23 01:12:11;;;;;;;5.20;4.70;;;19.20;60.90;;;;;;5013102;28;20042;-43
2023/05/23 01:15:25;;;;;;;6.18;5.15;;;19.20;61.10;;;;;;5022016;28;20046;-47
2023/05/23 01:18:07;;;;;;;5.70;5.18;;;19.20;61.10;;;;;;4967647;28;20630;-43
2023/05/23 01:20:40;;;;;;;7.82;5.95;;;19.30;61.20;;;;;;4945515;29;20051;-45
2023/05/23 01:23:34;;;;;;;6.43;5.78;;;19.30;60.90;;;;;;4999081;28;20084;-44
2023/05/23 01:26:31;;;;;;;5.78;5.18;;;19.20;61.20;;;;;;5009938;28;20049;-44
2023/05/23 01:29:09;;;;;;;7.18;5.70;;;19.20;60.90;;;;;;5016663;28;20532;-44
2023/05/23 01:31:45;;;;;;;8.50;6.10;;;19.20;60.90;;;;;;5027730;28;20047;-45
2023/05/23 01:34:17;;;;;;;7.38;5.68;;;19.20;60.60;;;;;;4988302;28;20038;-45
2023/05/23 01:36:49;;;;;;;8.52;5.32;;;19.20;60.40;;;;;;4998777;28;20120;-49
2023/05/23 01:39:18;;;;;;;6.25;4.82;;;19.10;60.40;;;;;;5028907;28;20107;-45
2023/05/23 01:41:49;;;;;;;7.20;5.30;;;19.10;60.30;;;;;;4992684;28;20061;-45
2023/05/23 01:44:16;;;;;;;5.15;4.65;;;19.10;60.30;;;;;;5005167;28;20057;-45
2023/05/23 01:46:51;;;;;;;7.68;5.20;;;19.10;60.20;;;;;;5021499;28;20052;-48
2023/05/23 01:49:22;;;;;;;5.93;5.15;;;19.10;60.30;;;;;;5011192;28;20127;-47
2023/05/23 01:51:49;;;;;;;6.50;4.70;;;19.10;60.30;;;;;;4998610;28;20046;-45
2023/05/23 01:54:21;;;;;;;7.05;4.88;;;19.10;60.20;;;;;;4992499;28;20046;-43
2023/05/23 01:56:51;;;;;;;6.70;4.90;;;19.00;60.10;;;;;;5013410;28;20041;-45
2023/05/23 01:59:23;;;;;;;5.85;5.03;;;19.00;60.10;;;;;;5011016;28;20497;-43
2023/05/23 02:01:50;;;;;;;6.57;5.90;;;19.00;60.20;;;;;;5011173;28;20052;-45
2023/05/23 02:04:17;;;;;;;6.82;6.05;;;19.00;60.40;;;;;;5005535;28;20132;-47
2023/05/23 02:06:45;;;;;;;6.88;6.22;;;19.00;60.50;;;;;;5000263;28;20073;-43
2023/05/23 02:09:14;;;;;;;7.65;6.22;;;19.00;60.80;;;;;;5028169;28;20053;-44
2023/05/23 02:11:46;;;;;;;8.50;6.78;;;19.00;60.90;;;;;;5010319;28;20061;-47
2023/05/23 02:14:18;;;;;;;9.13;6.85;;;19.00;61.10;;;;;;5011717;28;20417;-43
2023/05/23 02:16:48;;;;;;;9.25;6.20;;;19.00;61.10;;;;;;5004186;28;20053;-44
2023/05/23 02:19:21;;;;;;;7.28;6.32;;;19.00;61.20;;;;;;5002803;28;20053;-43
2023/05/23 02:21:50;;;;;;;7.95;6.45;;;18.90;61.40;;;;;;5010199;28;20532;-43
2023/05/23 02:24:17;;;;;;;7.88;7.03;;;18.90;61.40;;;;;;4987971;28;20744;-45
2023/05/23 02:26:48;;;;;;;7.47;6.70;;;18.90;61.50;;;;;;4996041;28;20084;-48
2023/05/23 02:29:19;;;;;;;8.68;7.50;;;18.90;61.70;;;;;;5007637;28;20049;-43
2023/05/23 02:31:46;;;;;;;7.82;7.03;;;18.90;61.60;;;;;;5020105;28;20069;-44
2023/05/23 02:34:13;;;;;;;7.53;6.65;;;18.90;61.70;;;;;;5014277;28;20120;-45
2023/05/23 02:36:40;;;;;;;8.48;7.10;;;18.80;61.70;;;;;;4998406;28;20037;-44
2023/05/23 02:39:09;;;;;;;7.53;6.70;;;18.80;61.70;;;;;;5006454;28;20050;-45
2023/05/23 02:41:43;;;;;;;8.90;6.90;;;18.80;61.70;;;;;;5004922;28;20128;-43
2023/05/23 02:44:09;;;;;;;6.65;5.85;;;18.80;61.70;;;;;;5016916;28;20046;-45
2023/05/23 02:46:40;;;;;;;7.55;6.63;;;18.80;61.90;;;;;;5005668;28;20079;-43
2023/05/23 02:49:07;;;;;;;8.30;6.75;;;18.70;62.00;;;;;;5056862;23;20045;-49
2023/05/23 02:51:39;;;;;;;8.13;6.53;;;18.70;61.90;;;;;;5004438;28;20049;-47
2023/05/23 02:54:09;;;;;;;7.82;6.80;;;18.70;62.10;;;;;;5030269;28;20053;-49
2023/05/23 02:56:37;;;;;;;7.97;6.18;;;18.70;62.10;;;;;;5007173;28;20050;-48
2023/05/23 02:59:11;;;;;;;7.35;6.10;;;18.60;62.00;;;;;;5013651;28;20037;-50
2023/05/23 03:01:40;;;;;;;7.22;5.45;;;18.70;62.10;;;;;;5011180;28;20046;-47
2023/05/23 03:04:07;;;;;;;7.53;6.20;;;18.70;62.00;;;;;;4992002;28;20057;-48
2023/05/23 03:06:35;;;;;;;8.85;6.28;;;18.70;61.90;;;;;;4995049;28;20041;-47
2023/05/23 03:09:04;;;;;;;8.32;5.50;;;18.70;61.90;;;;;;5010666;28;20065;-48
2023/05/23 03:11:31;;;;;;;6.88;6.07;;;18.70;61.80;;;;;;5009606;28;20590;-48
2023/05/23 03:13:58;;;;;;;6.50;5.68;;;18.60;61.80;;;;;;4993570;28;20038;-48
2023/05/23 03:16:25;;;;;;;7.25;5.68;;;18.60;61.70;;;;;;5009738;28;20116;-48
2023/05/23 03:18:54;;;;;;;10.63;6.38;;;18.60;61.80;;;;;;4994285;28;20149;-49
2023/05/23 03:21:21;;;;;;;7.90;5.78;;;18.60;61.90;;;;;;4992007;28;20157;-51
2023/05/23 03:23:49;;;;;;;8.98;6.72;;;18.60;62.00;;;;;;5007535;28;20053;-52
2023/05/23 03:26:18;;;;;;;8.30;6.50;;;18.60;62.20;;;;;;4987407;28;20137;-52
2023/05/23 03:28:46;;;;;;;8.75;6.38;;;18.50;62.20;;;;;;4986517;28;20057;-48
2023/05/23 03:31:12;;;;;;;9.18;6.90;;;18.50;62.40;;;;;;5011835;28;20052;-52
2023/05/23 03:33:39;;;;;;;10.63;7.00;;;18.50;62.50;;;;;;5010418;28;20174;-52
2023/05/23 03:36:06;;;;;;;9.18;6.20;;;18.50;62.50;;;;;;4995263;28;20133;-52
2023/05/23 03:38:37;;;;;;;7.05;5.90;;;18.50;62.50;;;;;;5010587;28;20084;-51
2023/05/23 03:41:04;;;;;;;10.13;7.03;;;18.50;62.40;;;;;;5008155;28;20050;-52
2023/05/23 03:43:31;;;;;;;9.07;6.82;;;18.50;62.40;;;;;;4977408;28;20136;-51
2023/05/23 03:45:58;;;;;;;12.57;6.90;;;18.50;62.50;;;;;;4995034;28;20137;-51
2023/05/23 03:48:30;;;;;;;8.27;6.80;;;18.50;62.50;;;;;;4978233;28;20054;-48
2023/05/23 03:51:00;;;;;;;7.20;6.47;;;18.50;62.50;;;;;;4991391;28;20046;-52
2023/05/23 03:53:28;;;;;;;8.88;6.00;;;18.40;62.50;;;;;;5010650;28;20509;-48
2023/05/23 03:55:54;;;;;;;8.55;6.60;;;18.40;62.60;;;;;;4988322;28;20046;-49
2023/05/23 03:58:24;;;;;;;6.00;5.28;;;18.40;62.70;;;;;;4990472;28;20533;-52
2023/05/23 04:01:00;;;;;;;7.18;5.75;;;18.40;62.70;;;;;;4994282;28;20506;-52
2023/05/23 04:03:33;;;;;;;12.15;6.68;;;18.40;62.80;;;;;;4992391;28;20445;-52
2023/05/23 04:06:02;;;;;;;6.65;5.95;;;18.40;62.60;;;;;;4983283;28;20511;-50
2023/05/23 04:08:32;;;;;;;7.05;6.30;;;18.40;62.70;;;;;;5007917;28;20479;-49
2023/05/23 04:11:00;;;;;;;7.75;5.82;;;18.30;62.70;;;;;;4990714;28;20115;-51
2023/05/23 04:13:30;;;;;;;8.02;6.32;;;18.30;62.90;;;;;;4994511;28;20085;-51
2023/05/23 04:16:04;;;;;;;9.77;6.70;;;18.30;62.90;;;;;;4994247;28;20045;-51
2023/05/23 04:18:32;;;;;;;9.07;6.32;;;18.30;63.10;;;;;;4992284;28;20067;-50
2023/05/23 04:21:01;;;;;;;7.53;5.55;;;18.20;63.00;;;;;;4996574;28;20063;-52
2023/05/23 04:23:31;;;;;;;6.60;5.82;;;18.20;63.10;;;;;;4992679;28;20065;-49
2023/05/23 04:26:09;;;;;;;6.88;5.47;;;18.20;63.20;;;;;;4991831;28;20045;-51
2023/05/23 04:28:45;;;;;;;9.70;6.68;;;18.20;63.50;;;;;;4992413;28;20057;-50
2023/05/23 04:31:12;;;;;;;6.68;5.70;;;18.20;63.20;;;;;;4992216;28;20034;-51
2023/05/23 04:33:40;;;;;;;7.88;5.95;;;18.20;63.40;;;;;;4990618;28;21894;-51
2023/05/23 04:36:08;;;;;;;8.38;5.97;;;18.20;63.50;;;;;;4989286;28;20476;-51
2023/05/23 04:38:44;;;;;;;8.50;5.97;;;18.10;63.50;;;;;;4979652;28;20045;-51
2023/05/23 04:41:15;;;;;;;8.05;6.45;;;18.20;63.40;;;;;;4994599;28;20100;-51
2023/05/23 04:44:00;;;;;;;11.20;6.78;;;18.20;63.30;;;;;;5004510;28;20112;-52
2023/05/23 04:46:32;;;;;;;8.50;6.82;;;18.20;63.30;;;;;;4992005;28;20120;-52
2023/05/23 04:49:28;;;;;;;7.38;6.28;;;18.20;63.40;;;;;;4997902;28;20104;-51
2023/05/23 04:52:01;;;;;;;9.18;6.88;;;18.10;63.30;;;;;;4977571;28;20510;-51
2023/05/23 04:54:31;;;;;;;7.55;6.15;;;18.20;63.40;;;;;;5007948;28;20473;-51
2023/05/23 04:57:05;;;;;;;11.13;6.80;;;18.10;63.40;;;;;;4979633;28;20040;-52
2023/05/23 04:59:32;;;;;;;9.05;6.63;;;18.10;63.60;;;;;;4992106;28;20038;-51
2023/05/23 05:02:01;;;;;;;8.35;7.20;;;18.20;63.80;;;;;;4992060;28;20529;-52
2023/05/23 05:04:28;;;;;;;8.38;6.68;;;18.10;63.80;;;;;;4991918;28;20053;-51
2023/05/23 05:07:02;;;;;;;;;;;18.10;63.80;;;;;;4986537;28;20064;-51
2023/05/23 05:09:30;;;;;;;9.45;6.45;;;18.20;63.40;;;;;;4987791;28;20074;-52
2023/05/23 05:11:58;;;;;;;7.97;6.80;;;18.20;63.50;;;;;;5006537;28;20053;-51
2023/05/23 05:14:25;;;;;;;10.00;6.18;;;18.20;63.70;;;;;;4993342;28;20134;-52
2023/05/23 05:16:56;;;;;;;9.60;6.03;;;18.20;63.70;;;;;;4992407;28;20100;-51
2023/05/23 05:19:31;;;;;;;9.38;5.75;;;18.20;63.80;;;;;;4987565;28;20042;-50
2023/05/23 05:22:02;;;;;;;7.05;6.28;;;18.20;64.00;;;;;;4991418;28;20058;-51
2023/05/23 05:24:31;;;;;;;8.05;6.22;;;18.20;64.00;;;;;;4988631;28;20042;-51
2023/05/23 05:27:01;;;;;;;8.65;5.35;;;18.20;64.00;;;;;;4991534;28;20484;-51
2023/05/23 05:29:34;;;;;;;8.50;6.05;;;18.20;64.00;;;;;;4996468;28;20062;-49
2023/05/23 05:32:07;;;;;;;7.13;5.70;;;18.20;64.20;;;;;;4991262;28;20104;-51
2023/05/23 05:34:34;;;;;;;9.40;5.97;;;18.10;64.10;;;;;;5005990;28;20053;-52
2023/05/23 05:37:01;;;;;;;7.88;5.65;;;18.20;64.10;;;;;;4990986;28;20077;-52
2023/05/23 05:39:28;;;;;;;9.27;5.50;;;18.10;64.10;;;;;;4984876;28;20132;-49
2023/05/23 05:42:02;;;;;;;6.50;5.32;;;18.10;64.20;;;;;;5004203;28;20323;-52
2023/05/23 05:44:29;;;;;;;9.40;6.20;;;18.10;64.20;;;;;;4987721;28;20070;-50
2023/05/23 05:46:56;;;;;;;8.00;5.63;;;18.20;64.30;;;;;;4990754;28;20042;-51
2023/05/23 05:49:24;;;;;;;9.43;5.68;;;18.20;64.40;;;;;;4988820;28;20104;-51
2023/05/23 05:51:51;;;;;;;7.28;5.97;;;18.20;64.20;;;;;;4991102;28;20038;-52
2023/05/23 05:54:18;;;;;;;8.88;5.93;;;18.20;64.20;;;;;;5007174;28;20395;-50
2023/05/23 05:56:46;;;;;;;10.15;5.60;;;18.20;64.20;;;;;;4983634;28;20045;-49
2023/05/23 05:59:17;;;;;;;7.88;6.10;;;18.20;64.40;;;;;;4987815;28;20074;-50
2023/05/23 06:01:44;;;;;;;8.48;6.57;;;18.20;64.50;;;;;;5007831;28;20046;-52
2023/05/23 06:04:18;;;;;;;8.98;6.60;;;18.20;64.40;;;;;;4987565;28;20054;-50
2023/05/23 06:06:47;;;;;;;7.65;5.53;;;18.20;64.40;;;;;;4989469;28;20042;-51
2023/05/23 06:09:15;;;;;;;13.30;6.18;;;18.20;64.60;;;;;;4984006;28;20716;-52
2023/05/23 06:11:44;;;;;;;7.13;5.45;;;18.20;64.60;;;;;;4995519;28;20046;-51
2023/05/23 06:14:10;;;;;;;7.25;6.38;;;18.20;64.60;;;;;;4996278;28;20070;-51
2023/05/23 06:16:41;;;;;;;7.15;5.88;;;18.20;64.60;;;;;;4990959;28;20430;-52
2023/05/23 06:19:08;;;;;;;7.85;6.28;;;18.20;64.50;;;;;;5013329;28;20077;-50
2023/05/23 06:21:36;;;;;;;9.52;6.65;;;18.30;64.50;;;;;;4995304;28;20054;-49
2023/05/23 06:24:09;;;;;;;8.13;5.85;;;18.30;64.40;;;;;;4993975;28;20045;-52
2023/05/23 06:26:36;;;;;;;8.05;6.30;;;18.30;64.40;;;;;;5007673;28;20143;-49
2023/05/23 06:29:03;;;;;;;8.50;6.32;;;18.30;64.30;;;;;;5001747;28;20084;-51
2023/05/23 06:31:34;;;;;;;10.95;6.53;;;18.30;64.30;;;;;;4995331;28;20459;-50
2023/05/23 06:34:00;;;;;;;9.07;7.10;;;18.30;64.30;;;;;;4989270;28;20046;-49
2023/05/23 06:36:27;;;;;;;10.27;6.07;;;18.30;64.20;;;;;;5012221;28;20060;-51
2023/05/23 06:38:56;;;;;;;10.38;6.15;;;18.30;64.30;;;;;;4991812;28;20038;-52
2023/05/23 06:41:30;;;;;;;9.50;6.03;;;18.30;64.30;;;;;;5014207;28;20100;-48
2023/05/23 06:43:56;;;;;;;8.38;6.45;;;18.30;64.10;;;;;;4992948;28;20103;-50
2023/05/23 06:46:28;;;;;;;8.80;6.15;;;18.20;64.00;;;;;;4994358;28;20511;-52
2023/05/23 06:49:01;;;;;;;9.85;6.57;;;18.30;64.00;;;;;;4994731;28;20049;-50
2023/05/23 06:51:44;;;;;;;8.98;6.05;;;18.20;64.20;;;;;;4993800;28;20418;-48
2023/05/23 06:54:20;;;;;;;9.23;7.05;;;18.20;64.30;;;;;;4986009;28;20048;-51
2023/05/23 06:56:48;;;;;;;14.07;7.55;;;18.20;64.30;;;;;;4990987;28;20037;-47
2023/05/23 06:59:15;;;;;;;8.88;7.18;;;18.20;64.40;;;;;;4994419;28;20046;-52
2023/05/23 07:01:44;;;;;;;9.77;6.97;;;18.20;64.50;;;;;;4994891;28;20045;-48
2023/05/23 07:04:12;;;;;;;10.05;6.72;;;18.20;64.40;;;;;;4994437;28;20046;-49
2023/05/23 07:06:39;;;;;;;11.55;7.18;;;18.20;64.60;;;;;;5012135;28;20064;-52
2023/05/23 07:09:12;;;;;;;10.75;7.03;;;18.20;64.60;;;;;;4994510;28;20461;-48
2023/05/23 07:11:40;;;;;;;14.32;7.80;;;18.20;64.60;;;;;;4990236;28;20043;-52
2023/05/23 07:14:09;;;;;;;10.95;7.30;;;18.20;64.40;;;;;;4999576;28;20072;-52
2023/05/23 07:16:40;;;;;;;13.77;7.40;;;18.10;64.10;;;;;;4994410;28;20679;-49
2023/05/23 07:19:07;;;;;;;11.13;6.93;;;18.10;64.10;;;;;;4994878;28;20046;-51
2023/05/23 07:21:43;;;;;;;14.05;8.73;;;18.10;64.20;;;;;;5007651;28;20034;-51
2023/05/23 07:24:15;;;;;;;12.48;6.93;;;18.00;64.30;;;;;;5007425;28;20132;-51
2023/05/23 07:26:41;;;;;;;8.40;6.07;;;18.00;64.40;;;;;;4989157;28;20144;-52
2023/05/23 07:29:11;;;;;;;17.40;6.47;;;17.90;64.30;;;;;;4993808;28;20042;-50
2023/05/23 07:31:41;;;;;;;9.90;5.53;;;17.90;64.30;;;;;;4993479;28;20062;-49
2023/05/23 07:34:11;;;;;;;9.00;5.40;;;17.90;64.40;;;;;;4990536;28;20121;-52
2023/05/23 07:36:49;;;;;;;8.75;5.35;;;17.80;64.50;;;;;;4986518;28;20070;-51
2023/05/23 07:39:20;;;;;;;7.03;5.47;;;17.80;64.60;;;;;;4991491;28;20042;-49
2023/05/23 07:41:52;;;;;;;11.25;6.00;;;17.80;64.60;;;;;;4993705;28;20089;-48
2023/05/23 07:44:19;;;;;;;11.65;6.53;;;17.80;65.10;;;;;;4990894;28;20503;-50
2023/05/23 07:46:50;;;;;;;7.45;5.80;;;17.70;64.50;;;;;;5003053;28;20042;-50
2023/05/23 07:49:17;;;;;;;10.80;6.30;;;17.70;64.60;;;;;;4988654;28;20502;-51
2023/05/23 07:51:52;;;;;;;11.27;6.68;;;17.70;64.70;;;;;;4986924;28;20045;-52
2023/05/23 07:54:22;;;;;;;12.02;5.78;;;17.60;64.90;;;;;;4993289;28;20447;-50
2023/05/23 07:56:57;;;;;;;9.65;5.15;;;17.60;64.90;;;;;;4991110;28;20092;-51
2023/05/23 07:59:32;;;;;;;10.25;6.50;;;17.50;64.60;;;;;;4993246;28;20073;-52
2023/05/23 08:01:59;;;;;;;7.70;5.63;;;17.50;64.70;;;;;;4993180;28;20465;-49
2023/05/23 08:04:27;;;;;;;8.98;5.55;;;17.50;64.70;;;;;;4993164;28;20502;-50
2023/05/23 08:06:54;;;;;;;11.05;5.75;;;17.40;64.80;;;;;;5010900;28;20034;-48
2023/05/23 08:09:30;;;;;;;9.77;4.93;;;17.40;64.80;;;;;;4992921;28;20121;-47
2023/05/23 08:11:58;;;;;;;9.98;5.40;;;17.40;65.10;;;;;;4990206;28;20088;-48
2023/05/23 08:14:37;;;;;;;7.60;4.93;;;17.40;65.00;;;;;;4973461;28;20052;-51
2023/05/23 08:17:22;;;;;;;6.97;4.40;;;17.40;65.00;;;;;;4993407;28;20535;-51
2023/05/23 08:19:52;;;;;;;8.25;4.55;;;17.40;64.90;;;;;;4991273;28;20038;-47
2023/05/23 08:22:21;;;;;;;11.75;6.20;;;17.40;64.80;;;;;;4995701;28;20452;-51
2023/05/23 08:24:48;;;;;;;8.52;4.65;;;17.50;64.70;;;;;;4990121;28;20121;-50
2023/05/23 08:27:17;;;;;;;9.30;4.80;;;17.50;64.40;;;;;;4992971;28;20042;-48
2023/05/23 08:29:51;;;;;;;7.45;4.53;;;17.60;64.60;;;;;;4992951;28;20124;-48
2023/05/23 08:32:20;;;;;;;6.43;4.57;;;17.60;64.50;;;;;;4993919;28;20042;-52
2023/05/23 08:34:53;;;;;;;9.75;4.70;;;17.70;64.30;;;;;;5010234;28;20044;-52
2023/05/23 08:37:23;;;;;;;12.52;5.40;;;17.70;64.10;;;;;;4997208;28;20053;-50
2023/05/23 08:39:55;;;;;;;11.63;6.78;;;17.80;63.60;;;;;;5001873;28;20038;-50
2023/05/23 08:42:34;;;;;;;10.18;5.88;;;17.80;63.10;;;;;;5007800;28;20046;-52
2023/05/23 08:45:03;;;;;;;15.27;5.55;;;17.80;62.60;;;;;;4992966;28;20049;-51
2023/05/23 08:47:37;;;;;;;11.13;5.32;;;17.80;62.40;;;;;;5010232;28;20037;-52
2023/05/23 08:50:12;;;;;;;10.82;5.00;;;17.80;62.10;;;;;;4989422;28;20050;-51
2023/05/23 08:52:53;;;;;;;9.50;5.05;;;17.70;61.80;;;;;;4991636;28;20309;-52
2023/05/23 08:55:29;;;;;;;10.00;4.82;;;17.80;61.80;;;;;;4987101;28;20042;-50
2023/05/23 08:57:59;;;;;;;8.93;5.60;;;17.70;61.90;;;;;;4990472;28;20038;-50
2023/05/23 09:00:44;;;;;;;12.23;5.57;;;17.70;62.00;;;;;;4992022;28;20100;-51
2023/05/23 09:03:16;;;;;;;7.47;4.93;;;17.70;61.50;;;;;;4987296;28;20046;-52
2023/05/23 09:06:06;;;;;;;9.90;5.63;;;17.70;61.30;;;;;;4993934;28;20045;-51
2023/05/23 09:08:34;;;;;;;8.18;4.70;;;17.60;60.90;;;;;;4993059;28;20455;-51
2023/05/23 09:11:04;;;;;;;8.63;4.32;;;17.60;60.80;;;;;;4992315;28;20038;-52
2023/05/23 09:13:40;;;;;;;7.80;4.78;;;17.70;60.80;;;;;;4987480;28;20053;-51
2023/05/23 09:16:11;;;;;;;11.32;4.80;;;17.60;60.70;;;;;;4990018;28;20045;-52
2023/05/23 09:18:55;;;;;;;10.48;5.05;;;17.60;60.70;;;;;;4992724;28;20038;-52
2023/05/23 09:21:30;;;;;;;6.07;4.05;;;17.70;60.70;;;;;;4991221;28;20050;-49
2023/05/23 09:24:05;;;;;;;6.70;4.60;;;17.70;60.70;;;;;;5006630;28;20156;-51
2023/05/23 09:26:36;;;;;;;8.75;5.13;;;17.80;59.80;;;;;;5009152;28;20113;-49
2023/05/23 09:29:06;;;;;;;6.15;4.68;;;17.80;59.40;;;;;;5009801;28;20046;-51
2023/05/23 09:31:33;;;;;;;7.38;4.47;;;17.90;59.30;;;;;;4991976;28;20233;-51
2023/05/23 09:34:01;;;;;;;8.23;4.25;;;17.90;59.10;;;;;;4989768;28;20038;-51
2023/05/23 09:36:33;;;;;;;7.95;4.53;;;18.00;59.50;;;;;;4996104;28;20133;-48
2023/05/23 09:39:06;;;;;;;9.70;4.93;;;18.20;59.40;;;;;;4995738;28;20038;-51
2023/05/23 09:41:34;;;;;;;8.67;5.07;;;18.30;59.70;;;;;;4984616;28;20739;-51
2023/05/23 09:44:08;;;;;;;6.88;5.30;;;18.50;59.90;;;;;;4992910;28;20047;-52
2023/05/23 09:46:37;;;;;;;6.90;4.72;;;18.70;59.20;;;;;;4987362;28;20048;-51
2023/05/23 09:49:22;;;;;;;14.55;6.43;;;18.90;58.70;;;;;;4991803;28;20048;-49
2023/05/23 09:51:59;;;;;;;9.43;5.28;;;19.00;57.20;;;;;;5012380;28;20530;-51
2023/05/23 09:54:29;;;;;;;7.38;5.60;;;19.20;56.40;;;;;;5010658;28;20829;-51
2023/05/23 09:57:04;;;;;;;9.40;5.53;;;19.30;56.50;;;;;;5012449;28;20494;-51
2023/05/23 09:59:37;;;;;;;7.30;4.88;;;19.30;56.00;;;;;;5012825;28;20061;-49
2023/05/23 10:02:10;;;;;;;11.13;5.05;;;19.40;55.20;;;;;;4996382;28;20137;-51
2023/05/23 10:04:40;;;;;;;9.93;4.82;;;19.40;55.80;;;;;;5012260;28;20061;-50
2023/05/23 10:07:13;;;;;;;9.88;5.18;;;19.50;55.70;;;;;;5014307;28;20073;-50
2023/05/23 10:09:44;;;;;;;9.20;5.22;;;19.60;54.80;;;;;;5006598;28;20406;-50
2023/05/23 10:12:32;;;;;;;9.25;5.40;;;19.60;54.40;;;;;;5013210;28;20054;-52
2023/05/23 10:15:03;;;;;;;6.00;4.22;;;19.70;53.80;;;;;;5011632;28;20047;-50
2023/05/23 10:17:45;;;;;;;8.63;4.80;;;19.70;54.10;;;;;;5012781;28;20046;-51
2023/05/23 10:20:20;;;;;;;5.75;4.20;;;19.70;53.80;;;;;;5001397;28;20042;-51
2023/05/23 10:22:51;;;;;;;8.02;4.25;;;19.80;54.80;;;;;;5011935;28;20470;-50
2023/05/23 10:25:21;;;;;;;5.82;4.32;;;19.90;54.40;;;;;;4992906;28;20054;-52
2023/05/23 10:27:57;;;;;;;10.25;4.50;;;20.00;54.50;;;;;;5012981;28;20394;-51
2023/05/23 10:30:27;;;;;;;9.13;4.25;;;20.10;53.30;;;;;;5012423;28;20057;-48
2023/05/23 10:32:57;;;;;;;4.75;3.90;;;20.20;53.60;;;;;;5012966;28;20069;-49
2023/05/23 10:35:46;;;;;;;9.57;4.32;;;20.30;53.50;;;;;;5007351;28;20062;-49
2023/05/23 10:38:15;;;;;;;8.75;4.00;;;20.40;52.50;;;;;;5013429;28;20042;-48
2023/05/23 10:41:12;;;;;;;5.90;3.80;;;20.40;52.40;;;;;;5005134;28;20128;-51
2023/05/23 10:43:43;;;;;;;6.40;4.15;;;20.50;52.40;;;;;;4992341;28;20804;-49
2023/05/23 10:46:14;;;;;;;5.70;4.32;;;20.50;52.60;;;;;;5005170;28;20538;-50
2023/05/23 10:48:44;;;;;;;4.63;3.47;;;20.50;52.10;;;;;;5010278;28;20435;-46
2023/05/23 10:51:19;;;;;;;10.52;4.05;;;20.60;52.30;;;;;;5011919;28;20046;-49
2023/05/23 10:53:53;;;;;;;7.13;3.58;;;20.60;51.60;;;;;;5013006;28;20042;-50
2023/05/23 10:56:24;;;;;;;7.47;4.15;;;20.60;51.40;;;;;;5011096;28;20046;-50
2023/05/23 10:58:56;;;;;;;4.93;2.97;;;20.60;51.30;;;;;;5011864;28;20073;-48
2023/05/23 11:01:24;;;;;;;5.85;3.97;;;20.60;50.80;;;;;;5011838;28;20088;-50
2023/05/23 11:03:52;;;;;;;11.00;3.88;;;20.50;51.20;;;;;;5011623;28;20046;-49
2023/05/23 11:06:31;;;;;;;6.43;3.90;;;20.50;51.20;;;;;;5012268;28;20406;-48
2023/05/23 11:09:08;;;;;;;5.10;3.20;;;20.40;51.40;;;;;;5012112;28;20042;-50
2023/05/23 11:11:53;;;;;;;5.18;3.92;;;20.30;51.70;;;;;;5008787;28;20045;-50
2023/05/23 11:14:34;;;;;;;5.20;2.90;;;20.30;51.90;;;;;;5009339;28;20096;-49
2023/05/23 11:17:31;;;;;;;5.93;3.22;;;20.30;52.30;;;;;;4994633;28;20054;-48
2023/05/23 11:20:12;;;;;;;4.05;3.20;;;20.30;51.90;;;;;;5011576;28;20091;-49
2023/05/23 11:23:01;;;;;;;3.83;3.00;;;20.30;51.90;;;;;;5011893;28;20038;-50
2023/05/23 11:25:41;;;;;;;6.70;2.50;;;20.30;51.20;;;;;;5009390;28;20437;-45
2023/05/23 11:28:09;;;;;;;6.10;2.33;;;20.40;50.70;;;;;;5006023;28;20125;-48
2023/05/23 11:30:39;;;;;;;3.40;2.53;;;20.40;51.70;;;;;;5011020;28;20048;-46
2023/05/23 11:33:15;;;;;;;4.15;2.22;;;20.50;51.20;;;;;;5012772;28;20517;-49
2023/05/23 11:35:48;;;;;;;3.50;2.72;;;20.60;50.50;;;;;;5008110;28;20077;-50
2023/05/23 11:38:15;;;;;;;4.07;2.17;;;20.70;51.40;;;;;;5006385;28;20054;-50
2023/05/23 11:41:02;;;;;;;5.32;2.90;;;20.80;51.30;;;;;;5014829;28;20084;-50
2023/05/23 11:43:29;;;;;;;3.65;2.38;;;20.90;50.80;;;;;;5009102;28;20056;-47
2023/05/23 11:46:07;;;;;;;6.32;2.50;;;21.00;50.40;;;;;;4992450;28;20050;-47
2023/05/23 11:48:37;;;;;;;5.85;2.67;;;21.10;49.70;;;;;;5011635;28;20545;-46
2023/05/23 11:51:07;;;;;;;3.30;2.33;;;21.20;49.40;;;;;;5003613;28;20052;-51
2023/05/23 11:53:40;;;;;;;4.57;2.28;;;21.20;49.30;;;;;;5011468;28;20053;-46
2023/05/23 11:56:07;;;;;;;3.10;2.10;;;21.20;48.90;;;;;;4988933;28;20141;-49
2023/05/23 11:58:37;;;;;;;5.82;3.10;;;21.30;49.20;;;;;;5011166;28;20050;-49
2023/05/23 12:01:14;;;;;;;6.15;3.20;;;21.30;48.90;;;;;;5008801;28;20507;-48
2023/05/23 12:03:47;;;;;;;5.20;2.58;;;21.30;48.90;;;;;;5010602;28;20044;-49
2023/05/23 12:06:20;;;;;;;5.28;2.38;;;21.40;48.50;;;;;;5009942;28;20045;-50
2023/05/23 12:08:50;;;;;;;6.57;2.50;;;21.40;48.80;;;;;;5010436;28;20104;-48
2023/05/23 12:11:22;;;;;;;5.60;2.20;;;21.40;48.50;;;;;;5009546;28;20073;-50
2023/05/23 12:13:52;;;;;;;4.25;2.60;;;21.50;48.60;;;;;;5011049;28;20033;-49
2023/05/23 12:16:20;;;;;;;6.38;2.40;;;21.60;48.10;;;;;;5010255;28;20100;-46
2023/05/23 12:18:47;;;;;;;5.35;2.05;;;21.60;47.90;;;;;;5010616;28;20042;-50
2023/05/23 12:21:17;;;;;;;5.15;2.75;;;21.60;47.70;;;;;;5009446;28;20057;-49
2023/05/23 12:23:46;;;;;;;9.13;2.47;;;21.60;47.80;;;;;;5008178;28;20041;-49
2023/05/23 12:26:18;;;;;;;5.65;2.42;;;21.70;48.40;;;;;;5007909;28;20402;-47
2023/05/23 12:28:45;;;;;;;8.27;2.83;;;21.70;48.70;;;;;;4991957;28;20422;-49
2023/05/23 12:31:19;;;;;;;6.68;2.47;;;21.80;47.60;;;;;;5009649;28;20045;-50
2023/05/23 12:33:48;;;;;;;6.95;3.75;;;21.90;47.00;;;;;;5008229;28;20045;-50
2023/05/23 12:36:30;;;;;;;6.60;2.92;;;22.00;47.60;;;;;;5009862;28;20512;-48
2023/05/23 12:39:02;;;;;;;5.60;2.70;;;22.10;47.10;;;;;;5010182;28;20046;-49
2023/05/23 12:41:32;;;;;;;8.35;2.92;;;22.20;46.90;;;;;;5011270;28;20041;-50
2023/05/23 12:43:59;;;;;;;5.57;2.72;;;22.30;46.30;;;;;;5009957;28;20054;-48
2023/05/23 12:46:30;;;;;;;7.85;2.95;;;22.20;45.60;;;;;;4986192;28;20043;-46
2023/05/23 12:48:59;;;;;;;6.53;3.00;;;22.30;45.00;;;;;;5009854;28;20053;-47
2023/05/23 12:51:26;;;;;;;7.28;2.47;;;22.30;44.60;;;;;;5010198;28;20069;-46
2023/05/23 12:53:54;;;;;;;6.90;2.65;;;22.30;44.70;;;;;;5009401;28;20057;-50
2023/05/23 12:56:27;;;;;;;5.95;2.95;;;22.40;44.10;;;;;;5003383;28;20494;-50
2023/05/23 12:59:00;;;;;;;4.70;2.08;;;22.30;44.70;;;;;;5011016;28;20092;-50
2023/05/23 13:01:27;;;;;;;5.68;2.55;;;22.40;45.10;;;;;;5010043;28;20038;-50
2023/05/23 13:03:57;;;;;;;5.70;2.28;;;22.40;44.00;;;;;;5009749;28;20052;-50
2023/05/23 13:06:27;;;;;;;7.72;2.70;;;22.50;43.40;;;;;;5009887;28;20096;-50
2023/05/23 13:08:54;;;;;;;4.80;2.38;;;22.60;44.20;;;;;;5010130;28;20056;-50